sensor_id;sensor_type;location;lat;lon;timestamp;temperature;humidity
44843;DHT22;31884;52.538;13.820;2022-08-11T00:02:35;18.00;28.30
44843;DHT22;31884;52.538;13.820;2022-08-11T00:05:05;18.00;28.40
44843;DHT22;31884;52.538;13.820;2022-08-11T00:07:31;18.00;28.80
44843;DHT22;31884;52.538;13.820;2022-08-11T00:09:58;18.00;28.90
44843;DHT22;31884;52.538;13.820;2022-08-11T00:12:24;17.90;29.30
44843;DHT22;31884;52.538;13.820;2022-08-11T00:14:56;17.90;29.20
44843;DHT22;31884;52.538;13.820;2022-08-11T00:17:27;17.90;29.10
44843;DHT22;31884;52.538;13.820;2022-08-11T00:20:06;17.80;29.40
44843;DHT22;31884;52.538;13.820;2022-08-11T00:22:37;17.80;29.30
44843;DHT22;31884;52.538;13.820;2022-08-11T00:25:22;17.70;29.30
44843;DHT22;31884;52.538;13.820;2022-08-11T00:27:48;17.70;30.20
44843;DHT22;31884;52.538;13.820;2022-08-11T00:30:14;17.60;30.10
44843;DHT22;31884;52.538;13.820;2022-08-11T00:32:43;17.60;30.40
44843;DHT22;31884;52.538;13.820;2022-08-11T00:35:14;17.60;30.60
44843;DHT22;31884;52.538;13.820;2022-08-11T00:37:47;17.50;31.10
44843;DHT22;31884;52.538;13.820;2022-08-11T00:40:22;17.40;32.30
44843;DHT22;31884;52.538;13.820;2022-08-11T00:43:06;17.40;32.50
44843;DHT22;31884;52.538;13.820;2022-08-11T00:45:42;17.40;33.60
44843;DHT22;31884;52.538;13.820;2022-08-11T00:48:24;17.30;32.70
44843;DHT22;31884;52.538;13.820;2022-08-11T00:54:18;17.20;33.80
44843;DHT22;31884;52.538;13.820;2022-08-11T01:00:15;17.10;36.60
44843;DHT22;31884;52.538;13.820;2022-08-11T01:02:53;17.00;36.00
44843;DHT22;31884;52.538;13.820;2022-08-11T01:05:27;17.10;35.10
44843;DHT22;31884;52.538;13.820;2022-08-11T01:16:56;16.90;37.10
44843;DHT22;31884;52.538;13.820;2022-08-11T01:20:07;16.80;37.60
44843;DHT22;31884;52.538;13.820;2022-08-11T01:28:29;16.70;39.50
44843;DHT22;31884;52.538;13.820;2022-08-11T01:46:16;16.50;42.00
44843;DHT22;31884;52.538;13.820;2022-08-11T01:52:01;16.40;39.90
44843;DHT22;31884;52.538;13.820;2022-08-11T01:55:07;16.30;41.70
44843;DHT22;31884;52.538;13.820;2022-08-11T02:00:13;16.20;41.00
44843;DHT22;31884;52.538;13.820;2022-08-11T02:08:20;16.00;45.10
44843;DHT22;31884;52.538;13.820;2022-08-11T02:10:57;15.90;42.70
44843;DHT22;31884;52.538;13.820;2022-08-11T02:13:51;15.90;42.80
44843;DHT22;31884;52.538;13.820;2022-08-11T02:21:59;15.80;44.70
44843;DHT22;31884;52.538;13.820;2022-08-11T02:25:02;15.70;45.70
44843;DHT22;31884;52.538;13.820;2022-08-11T02:27:42;15.70;45.70
44843;DHT22;31884;52.538;13.820;2022-08-11T02:30:13;15.70;46.60
44843;DHT22;31884;52.538;13.820;2022-08-11T02:36:04;15.70;47.50
44843;DHT22;31884;52.538;13.820;2022-08-11T02:41:49;15.60;46.40
44843;DHT22;31884;52.538;13.820;2022-08-11T02:44:56;15.60;49.30
44843;DHT22;31884;52.538;13.820;2022-08-11T02:47:55;15.60;48.00
44843;DHT22;31884;52.538;13.820;2022-08-11T02:50:57;15.50;47.30
44843;DHT22;31884;52.538;13.820;2022-08-11T02:56:37;15.50;50.00
44843;DHT22;31884;52.538;13.820;2022-08-11T03:04:58;15.30;48.10
44843;DHT22;31884;52.538;13.820;2022-08-11T03:13:22;15.20;50.20
44843;DHT22;31884;52.538;13.820;2022-08-11T03:25:01;15.10;52.90
44843;DHT22;31884;52.538;13.820;2022-08-11T03:27:32;15.10;51.90
44843;DHT22;31884;52.538;13.820;2022-08-11T03:30:42;15.00;52.00
44843;DHT22;31884;52.538;13.820;2022-08-11T03:33:28;15.00;51.60
44843;DHT22;31884;52.538;13.820;2022-08-11T03:36:35;15.00;52.20
44843;DHT22;31884;52.538;13.820;2022-08-11T03:42:48;14.90;54.30
44843;DHT22;31884;52.538;13.820;2022-08-11T03:45:24;14.90;54.30
44843;DHT22;31884;52.538;13.820;2022-08-11T03:53:48;14.80;55.50
44843;DHT22;31884;52.538;13.820;2022-08-11T03:59:55;14.80;55.20
44843;DHT22;31884;52.538;13.820;2022-08-11T04:05:43;14.80;55.00
44843;DHT22;31884;52.538;13.820;2022-08-11T04:08:27;14.80;60.40
44843;DHT22;31884;52.538;13.820;2022-08-11T04:17:47;14.90;55.80
44843;DHT22;31884;52.538;13.820;2022-08-11T04:35:08;15.50;54.60
44843;DHT22;31884;52.538;13.820;2022-08-11T04:38:00;16.30;52.60
44843;DHT22;31884;52.538;13.820;2022-08-11T04:44:05;18.20;42.50
44843;DHT22;31884;52.538;13.820;2022-08-11T04:49:57;19.90;37.50
44843;DHT22;31884;52.538;13.820;2022-08-11T04:53:10;20.70;35.40
44843;DHT22;31884;52.538;13.820;2022-08-11T04:56:10;21.50;34.30
44843;DHT22;31884;52.538;13.820;2022-08-11T04:59:19;22.30;29.00
44843;DHT22;31884;52.538;13.820;2022-08-11T05:13:31;25.10;17.50
44843;DHT22;31884;52.538;13.820;2022-08-11T05:16:25;25.50;20.40
44843;DHT22;31884;52.538;13.820;2022-08-11T05:19:16;26.00;17.10
44843;DHT22;31884;52.538;13.820;2022-08-11T05:22:02;26.40;16.80
44843;DHT22;31884;52.538;13.820;2022-08-11T05:24:56;26.80;16.00
44843;DHT22;31884;52.538;13.820;2022-08-11T05:27:52;27.30;15.80
44843;DHT22;31884;52.538;13.820;2022-08-11T05:30:41;27.90;14.60
44843;DHT22;31884;52.538;13.820;2022-08-11T05:33:41;28.10;12.70
44843;DHT22;31884;52.538;13.820;2022-08-11T05:36:34;28.70;8.80
44843;DHT22;31884;52.538;13.820;2022-08-11T05:39:10;28.90;9.30
44843;DHT22;31884;52.538;13.820;2022-08-11T05:41:56;29.40;8.80
44843;DHT22;31884;52.538;13.820;2022-08-11T05:44:43;29.50;7.70
44843;DHT22;31884;52.538;13.820;2022-08-11T05:47:27;30.00;1.10
44843;DHT22;31884;52.538;13.820;2022-08-11T05:50:14;30.30;3.60
44843;DHT22;31884;52.538;13.820;2022-08-11T05:53:02;30.40;4.40
44843;DHT22;31884;52.538;13.820;2022-08-11T05:55:48;30.80;3.60
44843;DHT22;31884;52.538;13.820;2022-08-11T05:58:36;31.50;3.60
44843;DHT22;31884;52.538;13.820;2022-08-11T06:01:03;31.90;2.10
44843;DHT22;31884;52.538;13.820;2022-08-11T06:03:29;32.50;1.20
44843;DHT22;31884;52.538;13.820;2022-08-11T06:05:58;32.50;1.00
44843;DHT22;31884;52.538;13.820;2022-08-11T06:08:32;32.70;1.00
44843;DHT22;31884;52.538;13.820;2022-08-11T06:11:03;32.60;1.00
44843;DHT22;31884;52.538;13.820;2022-08-11T06:13:30;32.50;1.00
44843;DHT22;31884;52.538;13.820;2022-08-11T06:15:57;32.00;1.00
44843;DHT22;31884;52.538;13.820;2022-08-11T06:18:23;32.30;1.00
44843;DHT22;31884;52.538;13.820;2022-08-11T06:20:54;32.60;1.00
44843;DHT22;31884;52.538;13.820;2022-08-11T06:23:22;33.40;1.00
44843;DHT22;31884;52.538;13.820;2022-08-11T06:25:50;34.10;1.00
44843;DHT22;31884;52.538;13.820;2022-08-11T06:28:16;34.30;1.00
44843;DHT22;31884;52.538;13.820;2022-08-11T06:30:45;34.20;1.00
44843;DHT22;31884;52.538;13.820;2022-08-11T06:33:18;34.50;1.00
44843;DHT22;31884;52.538;13.820;2022-08-11T06:41:51;36.60;1.00
44843;DHT22;31884;52.538;13.820;2022-08-11T06:44:29;36.80;1.00
44843;DHT22;31884;52.538;13.820;2022-08-11T06:47:04;35.50;1.00
44843;DHT22;31884;52.538;13.820;2022-08-11T06:49:34;36.20;1.00
44843;DHT22;31884;52.538;13.820;2022-08-11T06:52:31;36.20;1.00
44843;DHT22;31884;52.538;13.820;2022-08-11T06:55:00;36.30;1.00
44843;DHT22;31884;52.538;13.820;2022-08-11T06:57:34;36.70;1.00
44843;DHT22;31884;52.538;13.820;2022-08-11T07:00:20;37.20;1.00
44843;DHT22;31884;52.538;13.820;2022-08-11T07:03:11;37.60;1.00
44843;DHT22;31884;52.538;13.820;2022-08-11T07:05:51;37.60;1.00
44843;DHT22;31884;52.538;13.820;2022-08-11T07:12:06;38.80;1.00
44843;DHT22;31884;52.538;13.820;2022-08-11T07:14:54;38.40;1.00
44843;DHT22;31884;52.538;13.820;2022-08-11T07:17:50;37.10;1.00
44843;DHT22;31884;52.538;13.820;2022-08-11T07:20:38;36.50;1.00
44843;DHT22;31884;52.538;13.820;2022-08-11T07:23:37;37.30;1.00
44843;DHT22;31884;52.538;13.820;2022-08-11T07:26:24;37.10;1.00
44843;DHT22;31884;52.538;13.820;2022-08-11T07:29:10;36.50;1.00
44843;DHT22;31884;52.538;13.820;2022-08-11T07:31:49;37.50;1.00
44843;DHT22;31884;52.538;13.820;2022-08-11T07:36:58;39.30;1.00
44843;DHT22;31884;52.538;13.820;2022-08-11T07:39:35;39.00;1.00
44843;DHT22;31884;52.538;13.820;2022-08-11T07:42:11;39.00;1.00
44843;DHT22;31884;52.538;13.820;2022-08-11T07:44:41;39.10;1.00
44843;DHT22;31884;52.538;13.820;2022-08-11T07:47:27;39.00;1.00
44843;DHT22;31884;52.538;13.820;2022-08-11T07:50:12;38.50;1.00
44843;DHT22;31884;52.538;13.820;2022-08-11T07:52:57;38.70;1.00
44843;DHT22;31884;52.538;13.820;2022-08-11T07:55:23;39.20;1.00
44843;DHT22;31884;52.538;13.820;2022-08-11T07:57:50;39.40;1.00
44843;DHT22;31884;52.538;13.820;2022-08-11T08:00:41;39.00;1.00
44843;DHT22;31884;52.538;13.820;2022-08-11T08:03:30;38.60;1.00
44843;DHT22;31884;52.538;13.820;2022-08-11T08:06:16;38.90;1.00
44843;DHT22;31884;52.538;13.820;2022-08-11T08:09:01;38.80;1.00
44843;DHT22;31884;52.538;13.820;2022-08-11T08:11:46;38.20;1.00
44843;DHT22;31884;52.538;13.820;2022-08-11T08:14:31;38.00;1.00
44843;DHT22;31884;52.538;13.820;2022-08-11T08:17:15;37.40;1.00
44843;DHT22;31884;52.538;13.820;2022-08-11T08:20:00;36.50;1.00
44843;DHT22;31884;52.538;13.820;2022-08-11T08:22:28;36.70;1.00
44843;DHT22;31884;52.538;13.820;2022-08-11T08:24:54;37.10;1.00
44843;DHT22;31884;52.538;13.820;2022-08-11T08:27:21;36.80;1.00
44843;DHT22;31884;52.538;13.820;2022-08-11T08:29:48;36.90;1.00
44843;DHT22;31884;52.538;13.820;2022-08-11T08:32:33;36.70;1.00
44843;DHT22;31884;52.538;13.820;2022-08-11T08:35:04;36.90;1.00
44843;DHT22;31884;52.538;13.820;2022-08-11T08:37:30;36.00;1.00
44843;DHT22;31884;52.538;13.820;2022-08-11T08:39:57;36.10;1.00
44843;DHT22;31884;52.538;13.820;2022-08-11T08:42:30;35.80;1.00
44843;DHT22;31884;52.538;13.820;2022-08-11T08:45:17;34.80;1.00
44843;DHT22;31884;52.538;13.820;2022-08-11T08:47:52;34.90;1.00
44843;DHT22;31884;52.538;13.820;2022-08-11T08:50:21;34.80;1.00
44843;DHT22;31884;52.538;13.820;2022-08-11T08:53:00;33.80;1.00
44843;DHT22;31884;52.538;13.820;2022-08-11T08:55:29;32.90;1.00
44843;DHT22;31884;52.538;13.820;2022-08-11T08:57:55;32.40;1.00
44843;DHT22;31884;52.538;13.820;2022-08-11T09:00:36;32.60;1.00
44843;DHT22;31884;52.538;13.820;2022-08-11T09:03:03;32.90;1.00
44843;DHT22;31884;52.538;13.820;2022-08-11T09:05:28;32.80;1.00
44843;DHT22;31884;52.538;13.820;2022-08-11T09:07:54;32.50;1.00
44843;DHT22;31884;52.538;13.820;2022-08-11T09:10:23;32.80;1.00
44843;DHT22;31884;52.538;13.820;2022-08-11T09:12:49;32.80;1.00
44843;DHT22;31884;52.538;13.820;2022-08-11T09:15:17;32.90;1.00
44843;DHT22;31884;52.538;13.820;2022-08-11T09:17:48;33.30;1.00
44843;DHT22;31884;52.538;13.820;2022-08-11T09:20:22;33.60;1.00
44843;DHT22;31884;52.538;13.820;2022-08-11T09:22:50;33.60;1.00
44843;DHT22;31884;52.538;13.820;2022-08-11T09:25:35;33.40;1.00
44843;DHT22;31884;52.538;13.820;2022-08-11T09:28:21;32.90;1.00
44843;DHT22;31884;52.538;13.820;2022-08-11T09:30:51;32.50;1.00
44843;DHT22;31884;52.538;13.820;2022-08-11T09:33:21;32.70;1.00
44843;DHT22;31884;52.538;13.820;2022-08-11T09:35:48;32.30;1.00
44843;DHT22;31884;52.538;13.820;2022-08-11T09:38:16;32.00;1.00
44843;DHT22;31884;52.538;13.820;2022-08-11T09:41:02;32.00;1.00
44843;DHT22;31884;52.538;13.820;2022-08-11T09:43:30;32.50;1.00
44843;DHT22;31884;52.538;13.820;2022-08-11T09:46:15;33.00;1.00
44843;DHT22;31884;52.538;13.820;2022-08-11T09:48:43;33.30;1.00
44843;DHT22;31884;52.538;13.820;2022-08-11T09:51:09;33.50;1.00
44843;DHT22;31884;52.538;13.820;2022-08-11T09:53:40;33.20;1.00
44843;DHT22;31884;52.538;13.820;2022-08-11T09:56:11;33.00;1.00
44843;DHT22;31884;52.538;13.820;2022-08-11T09:58:58;33.00;1.00
44843;DHT22;31884;52.538;13.820;2022-08-11T10:01:29;33.20;1.00
44843;DHT22;31884;52.538;13.820;2022-08-11T10:04:07;33.40;1.00
44843;DHT22;31884;52.538;13.820;2022-08-11T10:06:35;33.40;1.00
44843;DHT22;31884;52.538;13.820;2022-08-11T10:09:23;33.20;1.00
44843;DHT22;31884;52.538;13.820;2022-08-11T10:11:53;32.90;1.00
44843;DHT22;31884;52.538;13.820;2022-08-11T10:14:20;32.80;1.00
44843;DHT22;31884;52.538;13.820;2022-08-11T10:17:07;32.80;1.00
44843;DHT22;31884;52.538;13.820;2022-08-11T10:19:35;32.50;1.00
44843;DHT22;31884;52.538;13.820;2022-08-11T10:22:05;31.60;1.00
44843;DHT22;31884;52.538;13.820;2022-08-11T10:24:51;31.00;1.00
44843;DHT22;31884;52.538;13.820;2022-08-11T10:27:38;30.80;1.00
44843;DHT22;31884;52.538;13.820;2022-08-11T10:30:05;30.50;1.00
44843;DHT22;31884;52.538;13.820;2022-08-11T10:32:49;29.80;1.00
44843;DHT22;31884;52.538;13.820;2022-08-11T10:35:33;29.60;1.00
44843;DHT22;31884;52.538;13.820;2022-08-11T10:38:00;29.70;1.00
44843;DHT22;31884;52.538;13.820;2022-08-11T10:40:26;29.70;1.00
44843;DHT22;31884;52.538;13.820;2022-08-11T10:42:58;29.60;1.00
44843;DHT22;31884;52.538;13.820;2022-08-11T10:45:37;29.70;1.00
44843;DHT22;31884;52.538;13.820;2022-08-11T10:48:24;29.60;1.00
44843;DHT22;31884;52.538;13.820;2022-08-11T10:50:51;29.70;1.00
44843;DHT22;31884;52.538;13.820;2022-08-11T10:53:40;29.60;1.00
44843;DHT22;31884;52.538;13.820;2022-08-11T10:56:28;29.40;1.00
44843;DHT22;31884;52.538;13.820;2022-08-11T10:59:13;29.20;1.00
44843;DHT22;31884;52.538;13.820;2022-08-11T11:01:41;29.10;1.00
44843;DHT22;31884;52.538;13.820;2022-08-11T11:04:20;29.00;1.00
44843;DHT22;31884;52.538;13.820;2022-08-11T11:07:30;28.90;1.00
44843;DHT22;31884;52.538;13.820;2022-08-11T11:09:47;28.90;1.00
44843;DHT22;31884;52.538;13.820;2022-08-11T11:12:19;28.90;1.00
44843;DHT22;31884;52.538;13.820;2022-08-11T11:15:06;28.90;1.00
44843;DHT22;31884;52.538;13.820;2022-08-11T11:17:58;28.90;1.00
44843;DHT22;31884;52.538;13.820;2022-08-11T11:23:14;29.10;1.00
44843;DHT22;31884;52.538;13.820;2022-08-11T11:29:10;28.60;1.00
44843;DHT22;31884;52.538;13.820;2022-08-11T11:37:10;28.30;1.00
44843;DHT22;31884;52.538;13.820;2022-08-11T11:39:38;28.40;1.00
44843;DHT22;31884;52.538;13.820;2022-08-11T11:42:07;28.50;1.00
44843;DHT22;31884;52.538;13.820;2022-08-11T11:44:33;28.50;1.00
44843;DHT22;31884;52.538;13.820;2022-08-11T11:47:02;28.40;1.00
44843;DHT22;31884;52.538;13.820;2022-08-11T11:49:29;28.40;1.00
44843;DHT22;31884;52.538;13.820;2022-08-11T11:51:58;28.40;1.00
44843;DHT22;31884;52.538;13.820;2022-08-11T11:54:28;28.30;1.00
44843;DHT22;31884;52.538;13.820;2022-08-11T11:56:56;28.50;1.00
44843;DHT22;31884;52.538;13.820;2022-08-11T11:59:24;28.50;1.00
44843;DHT22;31884;52.538;13.820;2022-08-11T12:02:12;28.60;1.00
44843;DHT22;31884;52.538;13.820;2022-08-11T12:04:40;28.40;1.00
44843;DHT22;31884;52.538;13.820;2022-08-11T12:07:08;28.20;1.00
44843;DHT22;31884;52.538;13.820;2022-08-11T12:09:53;28.20;1.00
44843;DHT22;31884;52.538;13.820;2022-08-11T12:12:20;28.30;1.00
44843;DHT22;31884;52.538;13.820;2022-08-11T12:15:06;28.30;1.00
44843;DHT22;31884;52.538;13.820;2022-08-11T12:17:33;28.30;1.00
44843;DHT22;31884;52.538;13.820;2022-08-11T12:20:00;28.30;1.00
44843;DHT22;31884;52.538;13.820;2022-08-11T12:22:26;28.30;1.00
44843;DHT22;31884;52.538;13.820;2022-08-11T12:25:10;28.30;1.00
44843;DHT22;31884;52.538;13.820;2022-08-11T12:27:55;28.20;1.00
44843;DHT22;31884;52.538;13.820;2022-08-11T12:30:21;28.10;1.00
44843;DHT22;31884;52.538;13.820;2022-08-11T12:32:47;28.10;1.00
44843;DHT22;31884;52.538;13.820;2022-08-11T12:35:14;28.10;1.00
44843;DHT22;31884;52.538;13.820;2022-08-11T12:37:44;28.20;1.00
44843;DHT22;31884;52.538;13.820;2022-08-11T12:40:21;28.20;1.00
44843;DHT22;31884;52.538;13.820;2022-08-11T12:43:10;28.20;1.00
44843;DHT22;31884;52.538;13.820;2022-08-11T12:45:58;28.20;1.00
44843;DHT22;31884;52.538;13.820;2022-08-11T12:48:32;28.30;1.00
44843;DHT22;31884;52.538;13.820;2022-08-11T12:51:24;28.30;1.00
44843;DHT22;31884;52.538;13.820;2022-08-11T12:54:14;28.30;1.00
44843;DHT22;31884;52.538;13.820;2022-08-11T12:56:47;28.30;1.00
44843;DHT22;31884;52.538;13.820;2022-08-11T12:59:33;28.20;1.00
44843;DHT22;31884;52.538;13.820;2022-08-11T13:02:20;28.10;1.00
44843;DHT22;31884;52.538;13.820;2022-08-11T13:05:08;28.00;1.00
44843;DHT22;31884;52.538;13.820;2022-08-11T13:07:36;28.00;1.00
44843;DHT22;31884;52.538;13.820;2022-08-11T13:10:05;28.00;1.00
44843;DHT22;31884;52.538;13.820;2022-08-11T13:12:32;28.00;1.00
44843;DHT22;31884;52.538;13.820;2022-08-11T13:15:21;28.00;1.00
44843;DHT22;31884;52.538;13.820;2022-08-11T13:17:50;28.00;1.00
44843;DHT22;31884;52.538;13.820;2022-08-11T13:20:21;27.90;1.00
44843;DHT22;31884;52.538;13.820;2022-08-11T13:22:53;27.90;1.00
44843;DHT22;31884;52.538;13.820;2022-08-11T13:25:22;27.90;1.00
44843;DHT22;31884;52.538;13.820;2022-08-11T13:27:49;28.00;1.00
44843;DHT22;31884;52.538;13.820;2022-08-11T13:30:16;28.00;1.00
44843;DHT22;31884;52.538;13.820;2022-08-11T13:33:02;28.00;1.00
44843;DHT22;31884;52.538;13.820;2022-08-11T13:35:31;28.00;1.00
44843;DHT22;31884;52.538;13.820;2022-08-11T13:38:00;27.90;1.00
44843;DHT22;31884;52.538;13.820;2022-08-11T13:40:26;27.90;1.00
44843;DHT22;31884;52.538;13.820;2022-08-11T13:42:53;28.00;1.00
44843;DHT22;31884;52.538;13.820;2022-08-11T13:45:21;28.00;1.00
44843;DHT22;31884;52.538;13.820;2022-08-11T13:47:48;28.00;1.00
44843;DHT22;31884;52.538;13.820;2022-08-11T13:50:14;28.00;1.00
44843;DHT22;31884;52.538;13.820;2022-08-11T13:52:40;27.90;1.00
44843;DHT22;31884;52.538;13.820;2022-08-11T13:55:09;28.00;1.00
44843;DHT22;31884;52.538;13.820;2022-08-11T13:57:35;28.00;1.00
44843;DHT22;31884;52.538;13.820;2022-08-11T14:00:04;28.00;1.00
44843;DHT22;31884;52.538;13.820;2022-08-11T14:02:36;28.00;1.00
44843;DHT22;31884;52.538;13.820;2022-08-11T14:05:11;28.10;1.00
44843;DHT22;31884;52.538;13.820;2022-08-11T14:07:41;28.00;1.00
44843;DHT22;31884;52.538;13.820;2022-08-11T14:10:11;28.00;1.00
44843;DHT22;31884;52.538;13.820;2022-08-11T14:12:37;28.10;1.00
44843;DHT22;31884;52.538;13.820;2022-08-11T14:15:28;28.00;1.00
44843;DHT22;31884;52.538;13.820;2022-08-11T14:18:10;28.00;1.00
44843;DHT22;31884;52.538;13.820;2022-08-11T14:20:41;28.00;1.00
44843;DHT22;31884;52.538;13.820;2022-08-11T14:23:31;28.00;1.00
44843;DHT22;31884;52.538;13.820;2022-08-11T14:25:59;28.00;1.00
44843;DHT22;31884;52.538;13.820;2022-08-11T14:28:44;28.00;1.00
44843;DHT22;31884;52.538;13.820;2022-08-11T14:31:12;27.90;1.00
44843;DHT22;31884;52.538;13.820;2022-08-11T14:33:39;27.90;1.00
44843;DHT22;31884;52.538;13.820;2022-08-11T14:36:07;27.90;1.00
44843;DHT22;31884;52.538;13.820;2022-08-11T14:38:33;28.00;1.00
44843;DHT22;31884;52.538;13.820;2022-08-11T14:41:00;28.00;1.00
44843;DHT22;31884;52.538;13.820;2022-08-11T14:43:46;28.00;1.00
44843;DHT22;31884;52.538;13.820;2022-08-11T14:46:32;28.00;1.00
44843;DHT22;31884;52.538;13.820;2022-08-11T14:49:18;27.90;1.00
44843;DHT22;31884;52.538;13.820;2022-08-11T14:51:44;27.90;1.00
44843;DHT22;31884;52.538;13.820;2022-08-11T14:54:11;27.90;1.00
44843;DHT22;31884;52.538;13.820;2022-08-11T14:56:55;27.80;1.00
44843;DHT22;31884;52.538;13.820;2022-08-11T14:59:22;27.80;1.00
44843;DHT22;31884;52.538;13.820;2022-08-11T15:01:48;27.70;1.00
44843;DHT22;31884;52.538;13.820;2022-08-11T15:04:32;27.80;1.00
44843;DHT22;31884;52.538;13.820;2022-08-11T15:06:58;27.70;1.00
44843;DHT22;31884;52.538;13.820;2022-08-11T15:09:24;27.80;1.00
44843;DHT22;31884;52.538;13.820;2022-08-11T15:11:50;27.80;1.00
44843;DHT22;31884;52.538;13.820;2022-08-11T15:14:34;27.80;1.00
44843;DHT22;31884;52.538;13.820;2022-08-11T15:17:20;27.80;1.00
44843;DHT22;31884;52.538;13.820;2022-08-11T15:19:48;27.80;1.00
44843;DHT22;31884;52.538;13.820;2022-08-11T15:22:33;27.70;1.00
44843;DHT22;31884;52.538;13.820;2022-08-11T15:25:18;27.70;1.00
44843;DHT22;31884;52.538;13.820;2022-08-11T15:27:46;27.70;1.00
44843;DHT22;31884;52.538;13.820;2022-08-11T15:30:31;27.70;1.00
44843;DHT22;31884;52.538;13.820;2022-08-11T15:33:18;27.70;1.00
44843;DHT22;31884;52.538;13.820;2022-08-11T15:36:06;27.60;1.00
44843;DHT22;31884;52.538;13.820;2022-08-11T15:39:00;27.60;1.00
44843;DHT22;31884;52.538;13.820;2022-08-11T15:41:35;27.60;1.00
44843;DHT22;31884;52.538;13.820;2022-08-11T15:44:22;27.60;1.00
44843;DHT22;31884;52.538;13.820;2022-08-11T15:47:09;27.60;1.00
44843;DHT22;31884;52.538;13.820;2022-08-11T15:49:40;27.70;1.00
44843;DHT22;31884;52.538;13.820;2022-08-11T15:52:16;27.60;1.00
44843;DHT22;31884;52.538;13.820;2022-08-11T15:54:43;27.60;1.00
44843;DHT22;31884;52.538;13.820;2022-08-11T15:57:11;27.70;1.00
44843;DHT22;31884;52.538;13.820;2022-08-11T15:59:58;27.70;1.00
44843;DHT22;31884;52.538;13.820;2022-08-11T16:02:44;27.60;1.00
44843;DHT22;31884;52.538;13.820;2022-08-11T16:05:21;27.60;1.00
44843;DHT22;31884;52.538;13.820;2022-08-11T16:07:48;27.60;1.00
44843;DHT22;31884;52.538;13.820;2022-08-11T16:10:16;27.60;1.00
44843;DHT22;31884;52.538;13.820;2022-08-11T16:12:49;27.60;1.00
44843;DHT22;31884;52.538;13.820;2022-08-11T16:15:34;27.60;1.00
44843;DHT22;31884;52.538;13.820;2022-08-11T16:18:22;27.60;1.00
44843;DHT22;31884;52.538;13.820;2022-08-11T16:20:50;27.60;1.00
44843;DHT22;31884;52.538;13.820;2022-08-11T16:23:19;27.60;1.00
44843;DHT22;31884;52.538;13.820;2022-08-11T16:25:51;27.50;1.00
44843;DHT22;31884;52.538;13.820;2022-08-11T16:28:18;27.50;1.00
44843;DHT22;31884;52.538;13.820;2022-08-11T16:30:45;27.40;1.00
44843;DHT22;31884;52.538;13.820;2022-08-11T16:33:10;27.40;1.00
44843;DHT22;31884;52.538;13.820;2022-08-11T16:35:38;27.40;1.00
44843;DHT22;31884;52.538;13.820;2022-08-11T16:38:24;27.30;1.00
44843;DHT22;31884;52.538;13.820;2022-08-11T16:41:02;27.30;1.00
44843;DHT22;31884;52.538;13.820;2022-08-11T16:43:29;27.30;1.00
44843;DHT22;31884;52.538;13.820;2022-08-11T16:46:16;27.20;1.00
44843;DHT22;31884;52.538;13.820;2022-08-11T16:49:09;27.10;1.00
44843;DHT22;31884;52.538;13.820;2022-08-11T16:51:36;27.00;1.00
44843;DHT22;31884;52.538;13.820;2022-08-11T16:54:02;26.90;1.00
44843;DHT22;31884;52.538;13.820;2022-08-11T16:56:35;26.80;1.00
44843;DHT22;31884;52.538;13.820;2022-08-11T16:59:06;26.80;1.00
44843;DHT22;31884;52.538;13.820;2022-08-11T17:01:40;26.70;1.00
44843;DHT22;31884;52.538;13.820;2022-08-11T17:04:13;26.70;1.00
44843;DHT22;31884;52.538;13.820;2022-08-11T17:06:59;26.60;1.00
44843;DHT22;31884;52.538;13.820;2022-08-11T17:09:46;26.50;1.00
44843;DHT22;31884;52.538;13.820;2022-08-11T17:12:33;26.40;1.00
44843;DHT22;31884;52.538;13.820;2022-08-11T17:15:21;26.40;1.00
44843;DHT22;31884;52.538;13.820;2022-08-11T17:18:06;26.30;1.00
44843;DHT22;31884;52.538;13.820;2022-08-11T17:20:35;26.20;1.00
44843;DHT22;31884;52.538;13.820;2022-08-11T17:23:03;26.20;1.00
44843;DHT22;31884;52.538;13.820;2022-08-11T17:25:50;26.10;1.00
44843;DHT22;31884;52.538;13.820;2022-08-11T17:28:17;26.00;1.00
44843;DHT22;31884;52.538;13.820;2022-08-11T17:30:44;26.00;1.00
44843;DHT22;31884;52.538;13.820;2022-08-11T17:33:30;25.90;1.00
44843;DHT22;31884;52.538;13.820;2022-08-11T17:36:17;25.90;1.00
44843;DHT22;31884;52.538;13.820;2022-08-11T17:38:46;25.70;1.00
44843;DHT22;31884;52.538;13.820;2022-08-11T17:41:14;25.70;1.00
44843;DHT22;31884;52.538;13.820;2022-08-11T17:43:59;25.70;1.00
44843;DHT22;31884;52.538;13.820;2022-08-11T17:46:44;25.50;1.00
44843;DHT22;31884;52.538;13.820;2022-08-11T17:49:29;25.50;1.00
44843;DHT22;31884;52.538;13.820;2022-08-11T17:52:03;25.40;1.00
44843;DHT22;31884;52.538;13.820;2022-08-11T17:54:49;25.20;1.00
44843;DHT22;31884;52.538;13.820;2022-08-11T17:57:35;25.20;1.00
44843;DHT22;31884;52.538;13.820;2022-08-11T18:00:20;25.10;1.00
44843;DHT22;31884;52.538;13.820;2022-08-11T18:02:47;25.00;1.00
44843;DHT22;31884;52.538;13.820;2022-08-11T18:05:36;24.90;1.00
44843;DHT22;31884;52.538;13.820;2022-08-11T18:08:05;24.80;1.00
44843;DHT22;31884;52.538;13.820;2022-08-11T18:10:51;24.70;1.00
44843;DHT22;31884;52.538;13.820;2022-08-11T18:13:39;24.60;1.00
44843;DHT22;31884;52.538;13.820;2022-08-11T18:16:24;24.40;1.00
44843;DHT22;31884;52.538;13.820;2022-08-11T18:19:10;24.30;1.00
44843;DHT22;31884;52.538;13.820;2022-08-11T18:22:00;24.20;1.00
44843;DHT22;31884;52.538;13.820;2022-08-11T18:24:49;24.10;1.00
44843;DHT22;31884;52.538;13.820;2022-08-11T18:27:37;23.90;1.00
44843;DHT22;31884;52.538;13.820;2022-08-11T18:30:23;23.80;1.00
44843;DHT22;31884;52.538;13.820;2022-08-11T18:33:08;23.70;1.00
44843;DHT22;31884;52.538;13.820;2022-08-11T18:35:54;23.50;1.00
44843;DHT22;31884;52.538;13.820;2022-08-11T18:38:42;23.40;1.00
44843;DHT22;31884;52.538;13.820;2022-08-11T18:41:30;23.20;1.00
44843;DHT22;31884;52.538;13.820;2022-08-11T18:44:18;23.10;1.00
44843;DHT22;31884;52.538;13.820;2022-08-11T18:47:08;22.90;1.00
44843;DHT22;31884;52.538;13.820;2022-08-11T18:49:54;22.80;1.00
44843;DHT22;31884;52.538;13.820;2022-08-11T18:52:44;22.70;1.00
44843;DHT22;31884;52.538;13.820;2022-08-11T18:55:31;22.50;1.00
44843;DHT22;31884;52.538;13.820;2022-08-11T18:58:22;22.40;1.00
44843;DHT22;31884;52.538;13.820;2022-08-11T19:01:11;22.30;1.00
44843;DHT22;31884;52.538;13.820;2022-08-11T19:03:56;22.10;1.00
44843;DHT22;31884;52.538;13.820;2022-08-11T19:06:42;21.90;1.30
44843;DHT22;31884;52.538;13.820;2022-08-11T19:09:29;21.90;1.90
44843;DHT22;31884;52.538;13.820;2022-08-11T19:12:14;21.70;2.10
44843;DHT22;31884;52.538;13.820;2022-08-11T19:15:00;21.60;2.70
44843;DHT22;31884;52.538;13.820;2022-08-11T19:17:45;21.50;3.40